sensor_id;sensor_type;location;lat;lon;timestamp;P1;durP1;ratioP1;P2;durP2;ratioP2
33459;SDS011;19795;53.160;6.612;2022-08-30T03:47:20;123.22;;;116.75;;
33459;SDS011;19795;53.160;6.612;2022-08-30T03:49:47;121.97;;;115.65;;
33459;SDS011;19795;53.160;6.612;2022-08-30T03:52:12;115.43;;;109.20;;
33459;SDS011;19795;53.160;6.612;2022-08-30T03:57:21;111.00;;;105.07;;
33459;SDS011;19795;53.160;6.612;2022-08-30T03:59:47;110.40;;;104.53;;
33459;SDS011;19795;53.160;6.612;2022-08-30T04:02:16;107.78;;;102.20;;
33459;SDS011;19795;53.160;6.612;2022-08-30T04:04:42;107.80;;;102.00;;
33459;SDS011;19795;53.160;6.612;2022-08-30T04:07:08;110.10;;;104.22;;
33459;SDS011;19795;53.160;6.612;2022-08-30T04:09:33;110.28;;;104.07;;
33459;SDS011;19795;53.160;6.612;2022-08-30T04:11:59;111.18;;;105.45;;
33459;SDS011;19795;53.160;6.612;2022-08-30T04:14:25;112.78;;;106.88;;
33459;SDS011;19795;53.160;6.612;2022-08-30T04:16:51;111.43;;;105.40;;
33459;SDS011;19795;53.160;6.612;2022-08-30T04:19:17;113.45;;;107.18;;
33459;SDS011;19795;53.160;6.612;2022-08-30T04:21:43;110.50;;;104.60;;
33459;SDS011;19795;53.160;6.612;2022-08-30T04:24:09;112.78;;;106.80;;
33459;SDS011;19795;53.160;6.612;2022-08-30T04:26:35;112.80;;;106.70;;
33459;SDS011;19795;53.160;6.612;2022-08-30T04:29:01;110.40;;;104.70;;
33459;SDS011;19795;53.160;6.612;2022-08-30T04:31:27;106.75;;;101.30;;
33459;SDS011;19795;53.160;6.612;2022-08-30T04:33:53;108.05;;;102.07;;
33459;SDS011;19795;53.160;6.612;2022-08-30T04:36:22;107.38;;;101.68;;
33459;SDS011;19795;53.160;6.612;2022-08-30T04:38:48;102.07;;;96.97;;
33459;SDS011;19795;53.160;6.612;2022-08-30T04:41:15;106.75;;;100.97;;
33459;SDS011;19795;53.160;6.612;2022-08-30T04:43:48;109.45;;;103.70;;
33459;SDS011;19795;53.160;6.612;2022-08-30T04:46:14;110.00;;;104.30;;
33459;SDS011;19795;53.160;6.612;2022-08-30T04:48:42;109.90;;;104.10;;
33459;SDS011;19795;53.160;6.612;2022-08-30T04:51:09;109.95;;;104.18;;
33459;SDS011;19795;53.160;6.612;2022-08-30T04:53:38;110.82;;;104.72;;
33459;SDS011;19795;53.160;6.612;2022-08-30T04:56:23;111.20;;;105.20;;
33459;SDS011;19795;53.160;6.612;2022-08-30T04:58:50;114.40;;;107.65;;
33459;SDS011;19795;53.160;6.612;2022-08-30T05:01:22;115.57;;;109.07;;
33459;SDS011;19795;53.160;6.612;2022-08-30T05:03:51;116.95;;;110.55;;
33459;SDS011;19795;53.160;6.612;2022-08-30T05:06:17;118.40;;;111.72;;
33459;SDS011;19795;53.160;6.612;2022-08-30T05:08:44;113.88;;;107.53;;
33459;SDS011;19795;53.160;6.612;2022-08-30T05:11:10;116.35;;;109.95;;
33459;SDS011;19795;53.160;6.612;2022-08-30T05:13:36;116.63;;;110.22;;
33459;SDS011;19795;53.160;6.612;2022-08-30T05:16:02;118.28;;;111.78;;
33459;SDS011;19795;53.160;6.612;2022-08-30T05:18:29;117.72;;;111.22;;
33459;SDS011;19795;53.160;6.612;2022-08-30T05:21:09;120.20;;;113.72;;
33459;SDS011;19795;53.160;6.612;2022-08-30T05:23:37;117.50;;;111.07;;
33459;SDS011;19795;53.160;6.612;2022-08-30T05:28:57;121.72;;;114.93;;
33459;SDS011;19795;53.160;6.612;2022-08-30T05:31:25;122.70;;;115.85;;
33459;SDS011;19795;53.160;6.612;2022-08-30T05:33:56;119.82;;;113.13;;
33459;SDS011;19795;53.160;6.612;2022-08-30T05:36:24;122.20;;;115.30;;
33459;SDS011;19795;53.160;6.612;2022-08-30T05:38:53;122.95;;;115.55;;
33459;SDS011;19795;53.160;6.612;2022-08-30T05:41:25;124.38;;;117.15;;
33459;SDS011;19795;53.160;6.612;2022-08-30T05:43:52;131.80;;;124.43;;
33459;SDS011;19795;53.160;6.612;2022-08-30T05:46:19;135.75;;;128.45;;
33459;SDS011;19795;53.160;6.612;2022-08-30T05:48:46;135.38;;;127.97;;
33459;SDS011;19795;53.160;6.612;2022-08-30T05:51:13;137.93;;;130.15;;
33459;SDS011;19795;53.160;6.612;2022-08-30T05:53:41;138.65;;;131.38;;
33459;SDS011;19795;53.160;6.612;2022-08-30T05:56:08;127.50;;;120.90;;
33459;SDS011;19795;53.160;6.612;2022-08-30T05:58:37;111.40;;;106.10;;
33459;SDS011;19795;53.160;6.612;2022-08-30T06:01:02;35.90;;;33.85;;
33459;SDS011;19795;53.160;6.612;2022-08-30T06:03:28;5.88;;;3.65;;
33459;SDS011;19795;53.160;6.612;2022-08-30T06:05:56;4.10;;;2.38;;
33459;SDS011;19795;53.160;6.612;2022-08-30T06:08:23;5.05;;;2.33;;
33459;SDS011;19795;53.160;6.612;2022-08-30T06:10:49;7.45;;;2.40;;
33459;SDS011;19795;53.160;6.612;2022-08-30T06:13:15;8.13;;;2.15;;
33459;SDS011;19795;53.160;6.612;2022-08-30T06:15:41;5.78;;;2.20;;
33459;SDS011;19795;53.160;6.612;2022-08-30T06:18:11;5.25;;;2.03;;
33459;SDS011;19795;53.160;6.612;2022-08-30T06:20:40;6.00;;;2.20;;
33459;SDS011;19795;53.160;6.612;2022-08-30T06:23:08;4.07;;;2.10;;
33459;SDS011;19795;53.160;6.612;2022-08-30T06:25:35;5.97;;;2.15;;
33459;SDS011;19795;53.160;6.612;2022-08-30T06:28:02;4.80;;;2.08;;
33459;SDS011;19795;53.160;6.612;2022-08-30T06:30:32;4.20;;;2.10;;
33459;SDS011;19795;53.160;6.612;2022-08-30T06:32:58;6.15;;;2.28;;
33459;SDS011;19795;53.160;6.612;2022-08-30T06:35:25;6.55;;;2.00;;
33459;SDS011;19795;53.160;6.612;2022-08-30T06:37:51;6.40;;;2.13;;
33459;SDS011;19795;53.160;6.612;2022-08-30T06:40:16;3.28;;;1.80;;
33459;SDS011;19795;53.160;6.612;2022-08-30T06:42:45;5.38;;;2.03;;
33459;SDS011;19795;53.160;6.612;2022-08-30T06:45:12;5.07;;;1.63;;
33459;SDS011;19795;53.160;6.612;2022-08-30T06:47:39;5.93;;;1.98;;
33459;SDS011;19795;53.160;6.612;2022-08-30T06:50:06;6.55;;;1.92;;
33459;SDS011;19795;53.160;6.612;2022-08-30T06:52:32;7.65;;;1.73;;
33459;SDS011;19795;53.160;6.612;2022-08-30T06:54:57;4.70;;;1.80;;
33459;SDS011;19795;53.160;6.612;2022-08-30T06:57:23;6.35;;;1.95;;
33459;SDS011;19795;53.160;6.612;2022-08-30T06:59:53;5.43;;;1.33;;
33459;SDS011;19795;53.160;6.612;2022-08-30T07:02:20;3.47;;;1.52;;
33459;SDS011;19795;53.160;6.612;2022-08-30T07:04:46;2.92;;;1.55;;
33459;SDS011;19795;53.160;6.612;2022-08-30T07:07:12;5.05;;;1.55;;
33459;SDS011;19795;53.160;6.612;2022-08-30T07:09:38;3.80;;;1.52;;
33459;SDS011;19795;53.160;6.612;2022-08-30T07:12:07;5.80;;;1.52;;
33459;SDS011;19795;53.160;6.612;2022-08-30T07:14:34;5.53;;;1.40;;
33459;SDS011;19795;53.160;6.612;2022-08-30T07:16:59;6.97;;;1.70;;
33459;SDS011;19795;53.160;6.612;2022-08-30T07:19:25;3.60;;;1.55;;
33459;SDS011;19795;53.160;6.612;2022-08-30T07:21:51;7.72;;;1.63;;
33459;SDS011;19795;53.160;6.612;2022-08-30T07:24:17;3.05;;;1.40;;
33459;SDS011;19795;53.160;6.612;2022-08-30T07:26:44;6.63;;;1.60;;
33459;SDS011;19795;53.160;6.612;2022-08-30T07:29:13;4.45;;;1.65;;
33459;SDS011;19795;53.160;6.612;2022-08-30T07:31:40;3.90;;;1.60;;
33459;SDS011;19795;53.160;6.612;2022-08-30T07:34:06;4.28;;;1.55;;
33459;SDS011;19795;53.160;6.612;2022-08-30T07:36:33;3.05;;;1.48;;
33459;SDS011;19795;53.160;6.612;2022-08-30T07:38:59;3.90;;;1.48;;
33459;SDS011;19795;53.160;6.612;2022-08-30T07:41:26;2.38;;;1.15;;
33459;SDS011;19795;53.160;6.612;2022-08-30T07:43:54;4.72;;;1.40;;
33459;SDS011;19795;53.160;6.612;2022-08-30T07:46:21;5.07;;;1.40;;
33459;SDS011;19795;53.160;6.612;2022-08-30T07:48:49;7.78;;;1.50;;
33459;SDS011;19795;53.160;6.612;2022-08-30T07:51:19;7.88;;;1.38;;
33459;SDS011;19795;53.160;6.612;2022-08-30T07:53:46;4.45;;;1.17;;
33459;SDS011;19795;53.160;6.612;2022-08-30T07:56:12;1.98;;;1.08;;
33459;SDS011;19795;53.160;6.612;2022-08-30T07:58:38;2.92;;;1.20;;
33459;SDS011;19795;53.160;6.612;2022-08-30T08:01:08;3.17;;;1.05;;
33459;SDS011;19795;53.160;6.612;2022-08-30T08:03:35;2.90;;;1.30;;
33459;SDS011;19795;53.160;6.612;2022-08-30T08:06:04;3.03;;;1.35;;
33459;SDS011;19795;53.160;6.612;2022-08-30T08:08:31;3.60;;;1.40;;
33459;SDS011;19795;53.160;6.612;2022-08-30T08:10:59;4.15;;;1.42;;
33459;SDS011;19795;53.160;6.612;2022-08-30T08:13:34;3.08;;;1.00;;
33459;SDS011;19795;53.160;6.612;2022-08-30T08:15:59;1.60;;;0.88;;
33459;SDS011;19795;53.160;6.612;2022-08-30T08:18:25;3.10;;;1.10;;
33459;SDS011;19795;53.160;6.612;2022-08-30T08:20:51;4.50;;;1.05;;
33459;SDS011;19795;53.160;6.612;2022-08-30T08:23:16;3.05;;;1.00;;
33459;SDS011;19795;53.160;6.612;2022-08-30T08:25:42;2.15;;;0.90;;
33459;SDS011;19795;53.160;6.612;2022-08-30T08:28:08;3.42;;;1.20;;
33459;SDS011;19795;53.160;6.612;2022-08-30T08:30:34;2.95;;;0.90;;
33459;SDS011;19795;53.160;6.612;2022-08-30T08:33:01;2.55;;;0.90;;
33459;SDS011;19795;53.160;6.612;2022-08-30T08:35:28;5.32;;;1.10;;
33459;SDS011;19795;53.160;6.612;2022-08-30T08:37:54;2.75;;;1.00;;
33459;SDS011;19795;53.160;6.612;2022-08-30T08:40:19;2.78;;;1.13;;
33459;SDS011;19795;53.160;6.612;2022-08-30T08:45:18;5.32;;;1.50;;
33459;SDS011;19795;53.160;6.612;2022-08-30T08:47:56;6.55;;;1.60;;
33459;SDS011;19795;53.160;6.612;2022-08-30T08:50:26;7.22;;;1.25;;
33459;SDS011;19795;53.160;6.612;2022-08-30T08:52:58;2.60;;;1.00;;
33459;SDS011;19795;53.160;6.612;2022-08-30T08:55:47;3.33;;;1.10;;
33459;SDS011;19795;53.160;6.612;2022-08-30T08:58:22;2.50;;;1.08;;
33459;SDS011;19795;53.160;6.612;2022-08-30T09:00:50;1.95;;;0.80;;
33459;SDS011;19795;53.160;6.612;2022-08-30T09:03:17;1.65;;;1.08;;
33459;SDS011;19795;53.160;6.612;2022-08-30T09:05:45;5.47;;;1.05;;
33459;SDS011;19795;53.160;6.612;2022-08-30T09:08:13;3.20;;;1.00;;
33459;SDS011;19795;53.160;6.612;2022-08-30T09:10:42;4.70;;;1.00;;
33459;SDS011;19795;53.160;6.612;2022-08-30T09:15:40;5.03;;;1.20;;
33459;SDS011;19795;53.160;6.612;2022-08-30T09:18:06;3.33;;;0.98;;
33459;SDS011;19795;53.160;6.612;2022-08-30T09:20:36;3.90;;;1.05;;
33459;SDS011;19795;53.160;6.612;2022-08-30T09:25:37;2.10;;;0.93;;
33459;SDS011;19795;53.160;6.612;2022-08-30T09:28:25;2.65;;;1.10;;
33459;SDS011;19795;53.160;6.612;2022-08-30T09:31:27;5.57;;;1.27;;
33459;SDS011;19795;53.160;6.612;2022-08-30T09:33:58;2.13;;;0.98;;
33459;SDS011;19795;53.160;6.612;2022-08-30T09:39:18;3.22;;;1.00;;
33459;SDS011;19795;53.160;6.612;2022-08-30T09:41:50;5.20;;;1.10;;
33459;SDS011;19795;53.160;6.612;2022-08-30T09:44:18;4.82;;;1.10;;
33459;SDS011;19795;53.160;6.612;2022-08-30T09:52:06;4.95;;;1.30;;
33459;SDS011;19795;53.160;6.612;2022-08-30T09:54:52;3.08;;;1.20;;
33459;SDS011;19795;53.160;6.612;2022-08-30T09:58:07;2.80;;;1.10;;
33459;SDS011;19795;53.160;6.612;2022-08-30T10:00:57;1.77;;;1.05;;
33459;SDS011;19795;53.160;6.612;2022-08-30T10:03:56;2.72;;;1.02;;
33459;SDS011;19795;53.160;6.612;2022-08-30T10:06:26;3.08;;;0.93;;
33459;SDS011;19795;53.160;6.612;2022-08-30T10:12:12;2.72;;;1.10;;
33459;SDS011;19795;53.160;6.612;2022-08-30T10:21:14;1.55;;;0.70;;
33459;SDS011;19795;53.160;6.612;2022-08-30T10:23:50;2.22;;;1.17;;
33459;SDS011;19795;53.160;6.612;2022-08-30T10:28:55;4.10;;;1.23;;
33459;SDS011;19795;53.160;6.612;2022-08-30T10:31:27;1.73;;;0.88;;
33459;SDS011;19795;53.160;6.612;2022-08-30T10:34:10;2.05;;;1.10;;
33459;SDS011;19795;53.160;6.612;2022-08-30T10:36:47;3.05;;;1.00;;
33459;SDS011;19795;53.160;6.612;2022-08-30T10:39:23;5.78;;;1.08;;
33459;SDS011;19795;53.160;6.612;2022-08-30T10:42:04;2.35;;;1.00;;
33459;SDS011;19795;53.160;6.612;2022-08-30T10:44:45;3.08;;;1.10;;
33459;SDS011;19795;53.160;6.612;2022-08-30T10:50:19;2.67;;;0.95;;
33459;SDS011;19795;53.160;6.612;2022-08-30T10:52:52;2.42;;;1.10;;
33459;SDS011;19795;53.160;6.612;2022-08-30T10:55:27;4.93;;;1.00;;
33459;SDS011;19795;53.160;6.612;2022-08-30T10:58:03;2.45;;;0.98;;
33459;SDS011;19795;53.160;6.612;2022-08-30T11:06:25;3.38;;;0.82;;
33459;SDS011;19795;53.160;6.612;2022-08-30T11:09:27;1.85;;;0.90;;
33459;SDS011;19795;53.160;6.612;2022-08-30T11:14:40;3.92;;;0.95;;
33459;SDS011;19795;53.160;6.612;2022-08-30T11:17:18;2.65;;;0.68;;
33459;SDS011;19795;53.160;6.612;2022-08-30T11:19:51;3.92;;;0.80;;
33459;SDS011;19795;53.160;6.612;2022-08-30T11:22:22;2.20;;;1.00;;
33459;SDS011;19795;53.160;6.612;2022-08-30T11:25:10;1.73;;;0.80;;
33459;SDS011;19795;53.160;6.612;2022-08-30T11:38:13;2.10;;;0.80;;
33459;SDS011;19795;53.160;6.612;2022-08-30T11:40:52;2.15;;;0.95;;
33459;SDS011;19795;53.160;6.612;2022-08-30T11:54:48;3.05;;;0.95;;
33459;SDS011;19795;53.160;6.612;2022-08-30T12:00:38;4.38;;;1.45;;
33459;SDS011;19795;53.160;6.612;2022-08-30T12:03:07;1.83;;;0.93;;
33459;SDS011;19795;53.160;6.612;2022-08-30T12:06:00;1.90;;;0.85;;
33459;SDS011;19795;53.160;6.612;2022-08-30T12:11:06;1.95;;;0.80;;
33459;SDS011;19795;53.160;6.612;2022-08-30T12:16:16;3.63;;;0.90;;
33459;SDS011;19795;53.160;6.612;2022-08-30T12:18:46;2.67;;;0.75;;
33459;SDS011;19795;53.160;6.612;2022-08-30T12:23:57;1.15;;;0.80;;
33459;SDS011;19795;53.160;6.612;2022-08-30T12:29:04;1.45;;;0.68;;
33459;SDS011;19795;53.160;6.612;2022-08-30T12:31:37;2.35;;;0.88;;
33459;SDS011;19795;53.160;6.612;2022-08-30T12:34:21;2.80;;;0.80;;
33459;SDS011;19795;53.160;6.612;2022-08-30T12:39:18;2.22;;;1.20;;
33459;SDS011;19795;53.160;6.612;2022-08-30T12:41:49;2.40;;;1.05;;
33459;SDS011;19795;53.160;6.612;2022-08-30T12:44:18;2.90;;;1.08;;
33459;SDS011;19795;53.160;6.612;2022-08-30T12:46:47;1.98;;;0.70;;
33459;SDS011;19795;53.160;6.612;2022-08-30T12:49:20;6.13;;;0.90;;
33459;SDS011;19795;53.160;6.612;2022-08-30T12:51:49;1.55;;;0.80;;
33459;SDS011;19795;53.160;6.612;2022-08-30T12:54:19;2.13;;;0.85;;
33459;SDS011;19795;53.160;6.612;2022-08-30T12:56:52;1.77;;;0.60;;
33459;SDS011;19795;53.160;6.612;2022-08-30T13:02:07;1.50;;;0.90;;
33459;SDS011;19795;53.160;6.612;2022-08-30T13:04:41;1.13;;;0.80;;
33459;SDS011;19795;53.160;6.612;2022-08-30T13:07:07;1.83;;;0.90;;
33459;SDS011;19795;53.160;6.612;2022-08-30T13:09:40;1.90;;;1.00;;
33459;SDS011;19795;53.160;6.612;2022-08-30T13:12:19;2.80;;;0.80;;
33459;SDS011;19795;53.160;6.612;2022-08-30T13:14:49;3.63;;;0.95;;
33459;SDS011;19795;53.160;6.612;2022-08-30T13:19:43;2.35;;;0.90;;
33459;SDS011;19795;53.160;6.612;2022-08-30T13:24:51;2.30;;;0.80;;
33459;SDS011;19795;53.160;6.612;2022-08-30T13:27:18;0.95;;;0.60;;
33459;SDS011;19795;53.160;6.612;2022-08-30T13:29:44;2.40;;;0.70;;
33459;SDS011;19795;53.160;6.612;2022-08-30T13:32:10;1.83;;;0.70;;
33459;SDS011;19795;53.160;6.612;2022-08-30T13:34:37;1.50;;;0.80;;
33459;SDS011;19795;53.160;6.612;2022-08-30T13:37:03;3.05;;;0.80;;
33459;SDS011;19795;53.160;6.612;2022-08-30T13:39:31;2.55;;;0.93;;
33459;SDS011;19795;53.160;6.612;2022-08-30T13:41:57;1.10;;;0.70;;
33459;SDS011;19795;53.160;6.612;2022-08-30T13:44:23;3.30;;;1.00;;
33459;SDS011;19795;53.160;6.612;2022-08-30T13:46:52;4.00;;;0.80;;
33459;SDS011;19795;53.160;6.612;2022-08-30T13:49:28;1.30;;;0.70;;
33459;SDS011;19795;53.160;6.612;2022-08-30T13:51:56;2.85;;;0.80;;
33459;SDS011;19795;53.160;6.612;2022-08-30T13:54:21;1.65;;;0.70;;
33459;SDS011;19795;53.160;6.612;2022-08-30T13:56:48;2.42;;;0.80;;
33459;SDS011;19795;53.160;6.612;2022-08-30T13:59:15;1.17;;;0.77;;
33459;SDS011;19795;53.160;6.612;2022-08-30T14:01:41;1.38;;;0.80;;
33459;SDS011;19795;53.160;6.612;2022-08-30T14:04:07;2.03;;;0.70;;
33459;SDS011;19795;53.160;6.612;2022-08-30T14:06:33;2.30;;;0.60;;
33459;SDS011;19795;53.160;6.612;2022-08-30T14:08:58;1.65;;;0.70;;
33459;SDS011;19795;53.160;6.612;2022-08-30T14:11:24;2.15;;;0.80;;
33459;SDS011;19795;53.160;6.612;2022-08-30T14:13:50;1.45;;;0.80;;
33459;SDS011;19795;53.160;6.612;2022-08-30T14:16:16;2.63;;;0.93;;
33459;SDS011;19795;53.160;6.612;2022-08-30T14:18:42;2.97;;;0.90;;
33459;SDS011;19795;53.160;6.612;2022-08-30T14:21:08;2.95;;;0.80;;
33459;SDS011;19795;53.160;6.612;2022-08-30T14:23:33;2.55;;;0.82;;
33459;SDS011;19795;53.160;6.612;2022-08-30T14:25:59;1.20;;;0.73;;
33459;SDS011;19795;53.160;6.612;2022-08-30T14:28:27;3.40;;;0.60;;
33459;SDS011;19795;53.160;6.612;2022-08-30T14:30:54;1.85;;;0.77;;
33459;SDS011;19795;53.160;6.612;2022-08-30T14:33:20;2.10;;;0.75;;
33459;SDS011;19795;53.160;6.612;2022-08-30T14:35:46;0.95;;;0.80;;
33459;SDS011;19795;53.160;6.612;2022-08-30T14:38:12;3.17;;;1.10;;
33459;SDS011;19795;53.160;6.612;2022-08-30T14:40:37;1.25;;;0.73;;
33459;SDS011;19795;53.160;6.612;2022-08-30T14:43:04;2.00;;;0.60;;
33459;SDS011;19795;53.160;6.612;2022-08-30T14:45:30;2.40;;;0.77;;
33459;SDS011;19795;53.160;6.612;2022-08-30T14:47:56;3.55;;;1.05;;
33459;SDS011;19795;53.160;6.612;2022-08-30T14:50:22;2.83;;;0.90;;
33459;SDS011;19795;53.160;6.612;2022-08-30T14:52:48;2.40;;;0.90;;
33459;SDS011;19795;53.160;6.612;2022-08-30T14:55:13;3.55;;;0.80;;
33459;SDS011;19795;53.160;6.612;2022-08-30T14:57:39;2.97;;;1.00;;
33459;SDS011;19795;53.160;6.612;2022-08-30T15:00:06;2.90;;;0.80;;
33459;SDS011;19795;53.160;6.612;2022-08-30T15:02:33;2.15;;;0.77;;
33459;SDS011;19795;53.160;6.612;2022-08-30T15:04:59;1.35;;;0.52;;
33459;SDS011;19795;53.160;6.612;2022-08-30T15:07:25;3.80;;;0.75;;
33459;SDS011;19795;53.160;6.612;2022-08-30T15:09:50;5.10;;;0.85;;
33459;SDS011;19795;53.160;6.612;2022-08-30T15:12:16;3.85;;;1.02;;
33459;SDS011;19795;53.160;6.612;2022-08-30T15:14:41;2.42;;;0.90;;
33459;SDS011;19795;53.160;6.612;2022-08-30T15:17:07;2.00;;;0.70;;
33459;SDS011;19795;53.160;6.612;2022-08-30T15:19:34;1.48;;;0.73;;
33459;SDS011;19795;53.160;6.612;2022-08-30T15:22:01;1.40;;;0.75;;
33459;SDS011;19795;53.160;6.612;2022-08-30T15:24:28;2.05;;;1.00;;
33459;SDS011;19795;53.160;6.612;2022-08-30T15:26:55;3.05;;;1.17;;
33459;SDS011;19795;53.160;6.612;2022-08-30T15:29:21;2.03;;;1.10;;
33459;SDS011;19795;53.160;6.612;2022-08-30T15:31:48;2.05;;;1.00;;
33459;SDS011;19795;53.160;6.612;2022-08-30T15:34:15;0.82;;;0.60;;
33459;SDS011;19795;53.160;6.612;2022-08-30T15:36:42;4.78;;;1.10;;
33459;SDS011;19795;53.160;6.612;2022-08-30T15:39:09;1.35;;;0.77;;
33459;SDS011;19795;53.160;6.612;2022-08-30T15:41:37;2.90;;;1.00;;
33459;SDS011;19795;53.160;6.612;2022-08-30T15:44:04;1.33;;;1.00;;
33459;SDS011;19795;53.160;6.612;2022-08-30T15:46:32;2.78;;;1.45;;
33459;SDS011;19795;53.160;6.612;2022-08-30T15:49:00;2.90;;;0.90;;
33459;SDS011;19795;53.160;6.612;2022-08-30T15:51:35;3.35;;;0.93;;
33459;SDS011;19795;53.160;6.612;2022-08-30T15:54:02;4.45;;;1.08;;
33459;SDS011;19795;53.160;6.612;2022-08-30T15:56:29;5.20;;;0.90;;
33459;SDS011;19795;53.160;6.612;2022-08-30T15:58:55;1.85;;;0.98;;
33459;SDS011;19795;53.160;6.612;2022-08-30T16:01:21;2.97;;;1.30;;
33459;SDS011;19795;53.160;6.612;2022-08-30T16:03:46;5.05;;;1.70;;
33459;SDS011;19795;53.160;6.612;2022-08-30T16:08:45;5.80;;;1.47;;
33459;SDS011;19795;53.160;6.612;2022-08-30T16:11:12;5.72;;;2.20;;
33459;SDS011;19795;53.160;6.612;2022-08-30T16:13:39;6.80;;;2.30;;
33459;SDS011;19795;53.160;6.612;2022-08-30T16:16:06;6.40;;;2.33;;
33459;SDS011;19795;53.160;6.612;2022-08-30T16:18:33;3.67;;;1.80;;
33459;SDS011;19795;53.160;6.612;2022-08-30T16:21:03;6.15;;;1.65;;
33459;SDS011;19795;53.160;6.612;2022-08-30T16:23:32;7.45;;;1.90;;
33459;SDS011;19795;53.160;6.612;2022-08-30T16:25:58;5.05;;;1.65;;
33459;SDS011;19795;53.160;6.612;2022-08-30T16:28:24;4.95;;;1.60;;
33459;SDS011;19795;53.160;6.612;2022-08-30T16:30:50;3.95;;;1.67;;
33459;SDS011;19795;53.160;6.612;2022-08-30T16:33:16;3.05;;;1.50;;
33459;SDS011;19795;53.160;6.612;2022-08-30T16:35:41;4.22;;;1.90;;
33459;SDS011;19795;53.160;6.612;2022-08-30T16:38:07;4.55;;;1.70;;
33459;SDS011;19795;53.160;6.612;2022-08-30T16:40:33;7.10;;;1.77;;
33459;SDS011;19795;53.160;6.612;2022-08-30T16:43:02;4.32;;;1.90;;
33459;SDS011;19795;53.160;6.612;2022-08-30T16:45:28;3.63;;;1.60;;
33459;SDS011;19795;53.160;6.612;2022-08-30T16:47:54;5.38;;;1.50;;
33459;SDS011;19795;53.160;6.612;2022-08-30T16:50:22;5.45;;;1.50;;
33459;SDS011;19795;53.160;6.612;2022-08-30T16:52:48;2.90;;;1.40;;
33459;SDS011;19795;53.160;6.612;2022-08-30T16:55:15;5.05;;;1.80;;
33459;SDS011;19795;53.160;6.612;2022-08-30T16:57:41;4.80;;;1.52;;
33459;SDS011;19795;53.160;6.612;2022-08-30T17:00:07;2.72;;;1.42;;
33459;SDS011;19795;53.160;6.612;2022-08-30T17:02:34;4.03;;;1.48;;
33459;SDS011;19795;53.160;6.612;2022-08-30T17:05:00;3.75;;;1.42;;
33459;SDS011;19795;53.160;6.612;2022-08-30T17:07:25;4.45;;;1.20;;
33459;SDS011;19795;53.160;6.612;2022-08-30T17:09:51;4.10;;;1.30;;
33459;SDS011;19795;53.160;6.612;2022-08-30T17:12:17;2.13;;;1.27;;
33459;SDS011;19795;53.160;6.612;2022-08-30T17:14:43;4.25;;;1.20;;
33459;SDS011;19795;53.160;6.612;2022-08-30T17:17:09;4.82;;;1.30;;
33459;SDS011;19795;53.160;6.612;2022-08-30T17:19:34;2.92;;;1.30;;
33459;SDS011;19795;53.160;6.612;2022-08-30T17:22:06;3.15;;;1.50;;
33459;SDS011;19795;53.160;6.612;2022-08-30T17:24:32;2.42;;;1.13;;
33459;SDS011;19795;53.160;6.612;2022-08-30T17:27:00;3.42;;;1.13;;
33459;SDS011;19795;53.160;6.612;2022-08-30T17:29:26;3.55;;;1.02;;
33459;SDS011;19795;53.160;6.612;2022-08-30T17:31:52;3.78;;;1.10;;
33459;SDS011;19795;53.160;6.612;2022-08-30T17:34:19;3.67;;;1.00;;
33459;SDS011;19795;53.160;6.612;2022-08-30T17:36:45;2.22;;;1.10;;
33459;SDS011;19795;53.160;6.612;2022-08-30T17:39:12;5.90;;;1.30;;
33459;SDS011;19795;53.160;6.612;2022-08-30T17:41:39;4.15;;;1.20;;
33459;SDS011;19795;53.160;6.612;2022-08-30T17:44:06;4.28;;;1.02;;
33459;SDS011;19795;53.160;6.612;2022-08-30T17:46:36;2.78;;;1.05;;
33459;SDS011;19795;53.160;6.612;2022-08-30T17:49:02;3.35;;;1.20;;
33459;SDS011;19795;53.160;6.612;2022-08-30T17:51:28;3.63;;;1.40;;
33459;SDS011;19795;53.160;6.612;2022-08-30T17:53:53;3.45;;;0.95;;
33459;SDS011;19795;53.160;6.612;2022-08-30T17:56:19;1.83;;;0.85;;
33459;SDS011;19795;53.160;6.612;2022-08-30T17:58:45;2.05;;;0.85;;
33459;SDS011;19795;53.160;6.612;2022-08-30T18:01:14;3.00;;;1.10;;
33459;SDS011;19795;53.160;6.612;2022-08-30T18:03:45;2.25;;;1.00;;
33459;SDS011;19795;53.160;6.612;2022-08-30T18:06:11;3.15;;;0.95;;
33459;SDS011;19795;53.160;6.612;2022-08-30T18:08:37;3.83;;;1.00;;
33459;SDS011;19795;53.160;6.612;2022-08-30T18:11:03;5.10;;;1.13;;
33459;SDS011;19795;53.160;6.612;2022-08-30T18:13:29;5.35;;;1.10;;
33459;SDS011;19795;53.160;6.612;2022-08-30T18:15:55;7.63;;;1.20;;
33459;SDS011;19795;53.160;6.612;2022-08-30T18:18:21;4.68;;;1.08;;
33459;SDS011;19795;53.160;6.612;2022-08-30T18:20:47;3.40;;;1.13;;
33459;SDS011;19795;53.160;6.612;2022-08-30T18:23:13;6.25;;;1.40;;
33459;SDS011;19795;53.160;6.612;2022-08-30T18:25:39;2.90;;;0.95;;
33459;SDS011;19795;53.160;6.612;2022-08-30T18:28:05;3.17;;;1.02;;
33459;SDS011;19795;53.160;6.612;2022-08-30T18:30:31;3.90;;;1.10;;
33459;SDS011;19795;53.160;6.612;2022-08-30T18:32:57;2.80;;;0.90;;
33459;SDS011;19795;53.160;6.612;2022-08-30T18:35:23;5.03;;;1.17;;
33459;SDS011;19795;53.160;6.612;2022-08-30T18:37:49;2.47;;;1.10;;
33459;SDS011;19795;53.160;6.612;2022-08-30T18:40:15;8.63;;;1.42;;
33459;SDS011;19795;53.160;6.612;2022-08-30T18:42:41;3.28;;;1.00;;
33459;SDS011;19795;53.160;6.612;2022-08-30T18:45:07;4.65;;;1.20;;
33459;SDS011;19795;53.160;6.612;2022-08-30T18:47:33;9.90;;;2.28;;
33459;SDS011;19795;53.160;6.612;2022-08-30T18:50:01;9.85;;;2.03;;
33459;SDS011;19795;53.160;6.612;2022-08-30T18:52:27;9.57;;;1.20;;
33459;SDS011;19795;53.160;6.612;2022-08-30T18:54:56;6.05;;;1.00;;
33459;SDS011;19795;53.160;6.612;2022-08-30T18:57:22;3.65;;;1.10;;
33459;SDS011;19795;53.160;6.612;2022-08-30T18:59:48;4.05;;;0.98;;
33459;SDS011;19795;53.160;6.612;2022-08-30T19:02:14;7.15;;;1.17;;
33459;SDS011;19795;53.160;6.612;2022-08-30T19:04:41;4.20;;;1.30;;
33459;SDS011;19795;53.160;6.612;2022-08-30T19:07:09;2.08;;;1.15;;
33459;SDS011;19795;53.160;6.612;2022-08-30T19:09:36;5.07;;;1.13;;
33459;SDS011;19795;53.160;6.612;2022-08-30T19:12:04;4.03;;;1.00;;
33459;SDS011;19795;53.160;6.612;2022-08-30T19:14:29;1.85;;;0.88;;
33459;SDS011;19795;53.160;6.612;2022-08-30T19:16:55;4.03;;;1.08;;
33459;SDS011;19795;53.160;6.612;2022-08-30T19:19:21;4.05;;;1.27;;
33459;SDS011;19795;53.160;6.612;2022-08-30T19:21:47;2.55;;;1.20;;
33459;SDS011;19795;53.160;6.612;2022-08-30T19:24:13;2.10;;;0.90;;
33459;SDS011;19795;53.160;6.612;2022-08-30T19:26:38;1.42;;;0.70;;
33459;SDS011;19795;53.160;6.612;2022-08-30T19:29:06;2.47;;;1.13;;
33459;SDS011;19795;53.160;6.612;2022-08-30T19:31:32;2.13;;;0.90;;
33459;SDS011;19795;53.160;6.612;2022-08-30T19:33:58;2.65;;;1.17;;
33459;SDS011;19795;53.160;6.612;2022-08-30T19:36:25;2.35;;;0.93;;
33459;SDS011;19795;53.160;6.612;2022-08-30T19:38:52;2.03;;;1.00;;
33459;SDS011;19795;53.160;6.612;2022-08-30T19:41:18;2.53;;;1.20;;
33459;SDS011;19795;53.160;6.612;2022-08-30T19:43:44;2.72;;;1.35;;
33459;SDS011;19795;53.160;6.612;2022-08-30T19:46:09;2.53;;;1.10;;
33459;SDS011;19795;53.160;6.612;2022-08-30T19:48:37;4.55;;;1.00;;
33459;SDS011;19795;53.160;6.612;2022-08-30T19:51:07;3.58;;;1.13;;
33459;SDS011;19795;53.160;6.612;2022-08-30T19:53:34;4.50;;;1.27;;
33459;SDS011;19795;53.160;6.612;2022-08-30T19:56:00;1.50;;;1.00;;
33459;SDS011;19795;53.160;6.612;2022-08-30T19:58:26;2.92;;;1.00;;
33459;SDS011;19795;53.160;6.612;2022-08-30T20:00:51;2.90;;;1.10;;
33459;SDS011;19795;53.160;6.612;2022-08-30T20:03:17;2.97;;;1.15;;
33459;SDS011;19795;53.160;6.612;2022-08-30T20:05:43;1.85;;;0.90;;
33459;SDS011;19795;53.160;6.612;2022-08-30T20:08:08;3.58;;;1.00;;